sensor_id;sensor_type;location;lat;lon;timestamp;pressure;altitude;pressure_sealevel;temperature;humidity
72116;BME280;59991;52.140;5.428;2023-02-18T00:00:11;102218.13;;;9.31;100.00
72116;BME280;59991;52.140;5.428;2023-02-18T00:00:43;102211.91;;;9.31;100.00
72116;BME280;59991;52.140;5.428;2023-02-18T00:01:16;102209.63;;;9.33;100.00
72116;BME280;59991;52.140;5.428;2023-02-18T00:01:48;102215.09;;;9.33;100.00
72116;BME280;59991;52.140;5.428;2023-02-18T00:02:19;102215.09;;;9.33;100.00
72116;BME280;59991;52.140;5.428;2023-02-18T00:02:51;102213.81;;;9.30;100.00
72116;BME280;59991;52.140;5.428;2023-02-18T00:03:27;102213.50;;;9.32;100.00
72116;BME280;59991;52.140;5.428;2023-02-18T00:03:59;102218.59;;;9.33;100.00
72116;BME280;59991;52.140;5.428;2023-02-18T00:04:31;102216.69;;;9.34;100.00
72116;BME280;59991;52.140;5.428;2023-02-18T00:05:03;102206.91;;;9.33;100.00
72116;BME280;59991;52.140;5.428;2023-02-18T00:05:34;102220.19;;;9.34;100.00
72116;BME280;59991;52.140;5.428;2023-02-18T00:06:15;102217.47;;;9.34;100.00
72116;BME280;59991;52.140;5.428;2023-02-18T00:06:47;102221.31;;;9.33;100.00
72116;BME280;59991;52.140;5.428;2023-02-18T00:07:18;102210.75;;;9.32;100.00
72116;BME280;59991;52.140;5.428;2023-02-18T00:07:49;102213.97;;;9.34;100.00
72116;BME280;59991;52.140;5.428;2023-02-18T00:08:21;102210.75;;;9.32;100.00
72116;BME280;59991;52.140;5.428;2023-02-18T00:08:53;102212.81;;;9.35;100.00
72116;BME280;59991;52.140;5.428;2023-02-18T00:09:26;102218.28;;;9.35;100.00
72116;BME280;59991;52.140;5.428;2023-02-18T00:09:57;102209.63;;;9.33;100.00
72116;BME280;59991;52.140;5.428;2023-02-18T00:10:29;102216.69;;;9.34;100.00
72116;BME280;59991;52.140;5.428;2023-02-18T00:11:00;102215.88;;;9.33;100.00
72116;BME280;59991;52.140;5.428;2023-02-18T00:11:33;102217.94;;;9.37;100.00
72116;BME280;59991;52.140;5.428;2023-02-18T00:12:05;102203.84;;;9.34;100.00
72116;BME280;59991;52.140;5.428;2023-02-18T00:12:37;102209.44;;;9.38;100.00
72116;BME280;59991;52.140;5.428;2023-02-18T00:13:08;102205.13;;;9.37;100.00
72116;BME280;59991;52.140;5.428;2023-02-18T00:13:40;102204.66;;;9.35;100.00
72116;BME280;59991;52.140;5.428;2023-02-18T00:14:13;102204.00;;;9.38;100.00
72116;BME280;59991;52.140;5.428;2023-02-18T00:14:44;102205.59;;;9.39;100.00
72116;BME280;59991;52.140;5.428;2023-02-18T00:15:16;102213.75;;;9.39;100.00
72116;BME280;59991;52.140;5.428;2023-02-18T00:15:47;102210.22;;;9.39;100.00
72116;BME280;59991;52.140;5.428;2023-02-18T00:16:19;102214.53;;;9.40;100.00
72116;BME280;59991;52.140;5.428;2023-02-18T00:16:51;102210.56;;;9.37;100.00
72116;BME280;59991;52.140;5.428;2023-02-18T00:17:22;102214.53;;;9.40;100.00
72116;BME280;59991;52.140;5.428;2023-02-18T00:17:54;102211.38;;;9.38;100.00
72116;BME280;59991;52.140;5.428;2023-02-18T00:18:26;102220.78;;;9.40;100.00
72116;BME280;59991;52.140;5.428;2023-02-18T00:18:59;102215.69;;;9.39;100.00
72116;BME280;59991;52.140;5.428;2023-02-18T00:19:31;102211.38;;;9.38;100.00
72116;BME280;59991;52.140;5.428;2023-02-18T00:20:04;102212.97;;;9.39;100.00
72116;BME280;59991;52.140;5.428;2023-02-18T00:20:38;102208.63;;;9.38;100.00
72116;BME280;59991;52.140;5.428;2023-02-18T00:21:09;102204.00;;;9.38;100.00
72116;BME280;59991;52.140;5.428;2023-02-18T00:21:41;102214.09;;;9.38;100.00
72116;BME280;59991;52.140;5.428;2023-02-18T00:22:13;102214.88;;;9.38;100.00
72116;BME280;59991;52.140;5.428;2023-02-18T00:22:44;102216.81;;;9.38;100.00
72116;BME280;59991;52.140;5.428;2023-02-18T00:23:16;102198.09;;;9.36;100.00
72116;BME280;59991;52.140;5.428;2023-02-18T00:23:47;102204.31;;;9.37;100.00
72116;BME280;59991;52.140;5.428;2023-02-18T00:24:19;102217.59;;;9.38;100.00
72116;BME280;59991;52.140;5.428;2023-02-18T00:24:50;102202.41;;;9.37;100.00
72116;BME280;59991;52.140;5.428;2023-02-18T00:25:22;102205.91;;;9.38;100.00
72116;BME280;59991;52.140;5.428;2023-02-18T00:26:32;102199.69;;;9.37;100.00
72116;BME280;59991;52.140;5.428;2023-02-18T00:27:03;102201.28;;;9.38;100.00
72116;BME280;59991;52.140;5.428;2023-02-18T00:27:34;102202.72;;;9.35;100.00
72116;BME280;59991;52.140;5.428;2023-02-18T00:28:06;102200.34;;;9.34;100.00
72116;BME280;59991;52.140;5.428;2023-02-18T00:28:37;102196.50;;;9.35;100.00
72116;BME280;59991;52.140;5.428;2023-02-18T00:29:09;102205.13;;;9.37;100.00
72116;BME280;59991;52.140;5.428;2023-02-18T00:29:41;102192.50;;;9.32;100.00
72116;BME280;59991;52.140;5.428;2023-02-18T00:30:13;102199.22;;;9.35;100.00
72116;BME280;59991;52.140;5.428;2023-02-18T00:30:44;102205.13;;;9.37;100.00
72116;BME280;59991;52.140;5.428;2023-02-18T00:31:30;102194.22;;;9.37;100.00
72116;BME280;59991;52.140;5.428;2023-02-18T00:32:02;102201.59;;;9.37;100.00
72116;BME280;59991;52.140;5.428;2023-02-18T00:32:34;102198.88;;;9.37;100.00
72116;BME280;59991;52.140;5.428;2023-02-18T00:33:06;102206.25;;;9.36;100.00
72116;BME280;59991;52.140;5.428;2023-02-18T00:33:39;102198.88;;;9.37;100.00
72116;BME280;59991;52.140;5.428;2023-02-18T00:34:11;102193.78;;;9.35;100.00
72116;BME280;59991;52.140;5.428;2023-02-18T00:34:43;102189.44;;;9.34;100.00
72116;BME280;59991;52.140;5.428;2023-02-18T00:35:14;102198.09;;;9.36;100.00
72116;BME280;59991;52.140;5.428;2023-02-18T00:35:46;102195.38;;;9.36;100.00
72116;BME280;59991;52.140;5.428;2023-02-18T00:36:19;102189.91;;;9.36;100.00
72116;BME280;59991;52.140;5.428;2023-02-18T00:36:50;102193.31;;;9.33;100.00
72116;BME280;59991;52.140;5.428;2023-02-18T00:37:22;102193.78;;;9.35;100.00
72116;BME280;59991;52.140;5.428;2023-02-18T00:37:53;102190.25;;;9.34;100.00
72116;BME280;59991;52.140;5.428;2023-02-18T00:38:25;102190.13;;;9.31;100.00
72116;BME280;59991;52.140;5.428;2023-02-18T00:38:59;102188.19;;;9.31;100.00
72116;BME280;59991;52.140;5.428;2023-02-18T00:39:30;102197.63;;;9.34;100.00
72116;BME280;59991;52.140;5.428;2023-02-18T00:40:02;102186.28;;;9.32;100.00
72116;BME280;59991;52.140;5.428;2023-02-18T00:40:38;102195.56;;;9.31;100.00
72116;BME280;59991;52.140;5.428;2023-02-18T00:41:10;102197.50;;;9.30;100.00
72116;BME280;59991;52.140;5.428;2023-02-18T00:41:41;102192.03;;;9.30;100.00
72116;BME280;59991;52.140;5.428;2023-02-18T00:42:13;102187.84;;;9.33;100.00
72116;BME280;59991;52.140;5.428;2023-02-18T00:42:44;102193.16;;;9.29;100.00
72116;BME280;59991;52.140;5.428;2023-02-18T00:43:16;102194.78;;;9.30;100.00
72116;BME280;59991;52.140;5.428;2023-02-18T00:43:48;102201.81;;;9.31;100.00
72116;BME280;59991;52.140;5.428;2023-02-18T00:44:19;102201.00;;;9.31;100.00
72116;BME280;59991;52.140;5.428;2023-02-18T00:44:50;102198.28;;;9.31;100.00
72116;BME280;59991;52.140;5.428;2023-02-18T00:45:22;102188.53;;;9.30;100.00
72116;BME280;59991;52.140;5.428;2023-02-18T00:45:53;102189.00;;;9.32;100.00
72116;BME280;59991;52.140;5.428;2023-02-18T00:46:26;102190.59;;;9.33;100.00
72116;BME280;59991;52.140;5.428;2023-02-18T00:46:57;102190.91;;;9.31;100.00
72116;BME280;59991;52.140;5.428;2023-02-18T00:47:29;102189.00;;;9.32;100.00
72116;BME280;59991;52.140;5.428;2023-02-18T00:48:00;102180.38;;;9.30;100.00
72116;BME280;59991;52.140;5.428;2023-02-18T00:48:32;102186.28;;;9.32;100.00
72116;BME280;59991;52.140;5.428;2023-02-18T00:49:04;102189.31;;;9.30;100.00
72116;BME280;59991;52.140;5.428;2023-02-18T00:49:36;102188.06;;;9.28;100.00
72116;BME280;59991;52.140;5.428;2023-02-18T00:50:08;102187.72;;;9.29;100.00
72116;BME280;59991;52.140;5.428;2023-02-18T00:50:40;102187.72;;;9.29;100.00
72116;BME280;59991;52.140;5.428;2023-02-18T00:51:12;102186.94;;;9.29;100.00
72116;BME280;59991;52.140;5.428;2023-02-18T00:51:43;102189.66;;;9.29;100.00
72116;BME280;59991;52.140;5.428;2023-02-18T00:52:15;102189.66;;;9.29;100.00
72116;BME280;59991;52.140;5.428;2023-02-18T00:52:46;102195.09;;;9.29;100.00
72116;BME280;59991;52.140;5.428;2023-02-18T00:53:18;102182.63;;;9.28;100.00
72116;BME280;59991;52.140;5.428;2023-02-18T00:53:49;102186.94;;;9.29;100.00
72116;BME280;59991;52.140;5.428;2023-02-18T00:54:21;102181.69;;;9.24;100.00
72116;BME280;59991;52.140;5.428;2023-02-18T00:54:52;102186.13;;;9.28;100.00
72116;BME280;59991;52.140;5.428;2023-02-18T00:55:23;102186.13;;;9.28;100.00
72116;BME280;59991;52.140;5.428;2023-02-18T00:55:55;102176.72;;;9.26;100.00
72116;BME280;59991;52.140;5.428;2023-02-18T00:56:26;102178.31;;;9.27;100.00
72116;BME280;59991;52.140;5.428;2023-02-18T00:56:58;102181.81;;;9.27;100.00
72116;BME280;59991;52.140;5.428;2023-02-18T00:57:29;102177.19;;;9.28;100.00
72116;BME280;59991;52.140;5.428;2023-02-18T00:58:01;102175.91;;;9.25;100.00
72116;BME280;59991;52.140;5.428;2023-02-18T00:58:33;102174.78;;;9.26;100.00
72116;BME280;59991;52.140;5.428;2023-02-18T00:59:05;102171.97;;;9.23;100.00
72116;BME280;59991;52.140;5.428;2023-02-18T00:59:36;102175.13;;;9.25;100.00
72116;BME280;59991;52.140;5.428;2023-02-18T01:00:09;102179.44;;;9.26;100.00
72116;BME280;59991;52.140;5.428;2023-02-18T01:00:40;102174.69;;;9.23;100.00
72116;BME280;59991;52.140;5.428;2023-02-18T01:01:12;102166.53;;;9.23;100.00
72116;BME280;59991;52.140;5.428;2023-02-18T01:01:43;102174.69;;;9.23;100.00
72116;BME280;59991;52.140;5.428;2023-02-18T01:02:15;102173.88;;;9.22;100.00
72116;BME280;59991;52.140;5.428;2023-02-18T01:02:47;102177.41;;;9.23;100.00
72116;BME280;59991;52.140;5.428;2023-02-18T01:03:18;102178.19;;;9.23;100.00
72116;BME280;59991;52.140;5.428;2023-02-18T01:03:50;102176.63;;;9.22;100.00
72116;BME280;59991;52.140;5.428;2023-02-18T01:04:22;102181.25;;;9.22;100.00
72116;BME280;59991;52.140;5.428;2023-02-18T01:04:53;102175.03;;;9.21;100.00
72116;BME280;59991;52.140;5.428;2023-02-18T01:05:25;102182.38;;;9.21;100.00
72116;BME280;59991;52.140;5.428;2023-02-18T01:05:56;102172.63;;;9.20;100.00
72116;BME280;59991;52.140;5.428;2023-02-18T01:06:28;102179.66;;;9.21;100.00
72116;BME280;59991;52.140;5.428;2023-02-18T01:06:59;102173.75;;;9.19;100.00
72116;BME280;59991;52.140;5.428;2023-02-18T01:07:31;102167.84;;;9.17;100.00
72116;BME280;59991;52.140;5.428;2023-02-18T01:08:03;102169.44;;;9.18;100.00
72116;BME280;59991;52.140;5.428;2023-02-18T01:08:35;102171.84;;;9.19;100.00
72116;BME280;59991;52.140;5.428;2023-02-18T01:09:07;102177.59;;;9.18;100.00
72116;BME280;59991;52.140;5.428;2023-02-18T01:09:39;102167.84;;;9.17;100.00
72116;BME280;59991;52.140;5.428;2023-02-18T01:10:10;102180.34;;;9.18;100.00
72116;BME280;59991;52.140;5.428;2023-02-18T01:10:44;102180.78;;;9.20;100.00
72116;BME280;59991;52.140;5.428;2023-02-18T01:11:16;102178.75;;;9.17;100.00
72116;BME280;59991;52.140;5.428;2023-02-18T01:11:48;102181.94;;;9.19;100.00
72116;BME280;59991;52.140;5.428;2023-02-18T01:12:19;102173.28;;;9.17;100.00
72116;BME280;59991;52.140;5.428;2023-02-18T01:12:51;102168.50;;;9.14;100.00
72116;BME280;59991;52.140;5.428;2023-02-18T01:13:23;102178.75;;;9.17;100.00
72116;BME280;59991;52.140;5.428;2023-02-18T01:13:54;102179.06;;;9.15;100.00
72116;BME280;59991;52.140;5.428;2023-02-18T01:14:26;102175.56;;;9.15;100.00
72116;BME280;59991;52.140;5.428;2023-02-18T01:14:57;102183.38;;;9.16;100.00
72116;BME280;59991;52.140;5.428;2023-02-18T01:15:29;102174.41;;;9.16;100.00
72116;BME280;59991;52.140;5.428;2023-02-18T01:16:01;102166.25;;;9.16;100.00
72116;BME280;59991;52.140;5.428;2023-02-18T01:16:32;102170.78;;;9.12;100.00
72116;BME280;59991;52.140;5.428;2023-02-18T01:17:04;102166.94;;;9.13;100.00
72116;BME280;59991;52.140;5.428;2023-02-18T01:17:35;102169.97;;;9.11;100.00
72116;BME280;59991;52.140;5.428;2023-02-18T01:18:08;102167.25;;;9.11;100.00
72116;BME280;59991;52.140;5.428;2023-02-18T01:18:39;102171.91;;;9.11;100.00
72116;BME280;59991;52.140;5.428;2023-02-18T01:19:11;102180.88;;;9.11;100.00
72116;BME280;59991;52.140;5.428;2023-02-18T01:19:42;102175.28;;;9.08;100.00
72116;BME280;59991;52.140;5.428;2023-02-18T01:20:14;102179.28;;;9.10;100.00
72116;BME280;59991;52.140;5.428;2023-02-18T01:20:46;102176.09;;;9.08;100.00
72116;BME280;59991;52.140;5.428;2023-02-18T01:21:18;102180.72;;;9.08;100.00
72116;BME280;59991;52.140;5.428;2023-02-18T01:21:49;102174.50;;;9.07;100.00
72116;BME280;59991;52.140;5.428;2023-02-18T01:22:21;102178.00;;;9.08;100.00
72116;BME280;59991;52.140;5.428;2023-02-18T01:22:52;102181.06;;;9.06;100.00
72116;BME280;59991;52.140;5.428;2023-02-18T01:23:24;102174.38;;;9.04;100.00
72116;BME280;59991;52.140;5.428;2023-02-18T01:23:55;102174.72;;;9.02;100.00
72116;BME280;59991;52.140;5.428;2023-02-18T01:24:28;102174.38;;;9.04;100.00
72116;BME280;59991;52.140;5.428;2023-02-18T01:24:59;102179.03;;;9.03;100.00
72116;BME280;59991;52.140;5.428;2023-02-18T01:25:31;102172.34;;;9.00;100.00
72116;BME280;59991;52.140;5.428;2023-02-18T01:26:03;102167.88;;;8.96;100.00
72116;BME280;59991;52.140;5.428;2023-02-18T01:26:34;102174.13;;;8.96;100.00
72116;BME280;59991;52.140;5.428;2023-02-18T01:27:06;102174.44;;;8.95;100.00
72116;BME280;59991;52.140;5.428;2023-02-18T01:27:37;102175.72;;;8.97;100.00
72116;BME280;59991;52.140;5.428;2023-02-18T01:28:10;102171.06;;;8.98;100.00
72116;BME280;59991;52.140;5.428;2023-02-18T01:28:42;102168.22;;;8.94;100.00
72116;BME280;59991;52.140;5.428;2023-02-18T01:29:13;102162.31;;;8.92;100.00
72116;BME280;59991;52.140;5.428;2023-02-18T01:29:45;102171.72;;;8.95;100.00
72116;BME280;59991;52.140;5.428;2023-02-18T01:30:17;102168.22;;;8.94;100.00
72116;BME280;59991;52.140;5.428;2023-02-18T01:30:48;102171.72;;;8.95;100.00
72116;BME280;59991;52.140;5.428;2023-02-18T01:31:22;102174.44;;;8.95;100.00
72116;BME280;59991;52.140;5.428;2023-02-18T01:31:53;102175.56;;;8.94;100.00
72116;BME280;59991;52.140;5.428;2023-02-18T01:32:25;102168.06;;;8.91;100.00
72116;BME280;59991;52.140;5.428;2023-02-18T01:32:57;102173.97;;;8.93;100.00
72116;BME280;59991;52.140;5.428;2023-02-18T01:33:29;102166.94;;;8.92;100.00
72116;BME280;59991;52.140;5.428;2023-02-18T01:34:00;102170.00;;;8.90;100.00
72116;BME280;59991;52.140;5.428;2023-02-18T01:34:32;102173.06;;;8.89;100.00
72116;BME280;59991;52.140;5.428;2023-02-18T01:35:05;102170.34;;;8.89;100.00
72116;BME280;59991;52.140;5.428;2023-02-18T01:35:39;102180.09;;;8.90;100.00
72116;BME280;59991;52.140;5.428;2023-02-18T01:36:11;102165.69;;;8.89;100.00
72116;BME280;59991;52.140;5.428;2023-02-18T01:36:42;102173.06;;;8.89;100.00
72116;BME280;59991;52.140;5.428;2023-02-18T01:37:14;102172.25;;;8.88;100.00
72116;BME280;59991;52.140;5.428;2023-02-18T01:37:47;102166.81;;;8.88;100.00
72116;BME280;59991;52.140;5.428;2023-02-18T01:38:18;102164.00;;;8.85;100.00
72116;BME280;59991;52.140;5.428;2023-02-18T01:38:50;102163.19;;;8.84;100.00
72116;BME280;59991;52.140;5.428;2023-02-18T01:39:21;102158.88;;;8.83;100.00
72116;BME280;59991;52.140;5.428;2023-02-18T01:39:52;102160.81;;;8.83;100.00
72116;BME280;59991;52.140;5.428;2023-02-18T01:40:26;102159.69;;;8.84;100.00
72116;BME280;59991;52.140;5.428;2023-02-18T01:40:58;102160.91;;;8.86;100.00
72116;BME280;59991;52.140;5.428;2023-02-18T01:41:30;102156.59;;;8.85;100.00
72116;BME280;59991;52.140;5.428;2023-02-18T01:42:01;102156.16;;;8.83;100.00
72116;BME280;59991;52.140;5.428;2023-02-18T01:42:33;102155.03;;;8.84;100.00
72116;BME280;59991;52.140;5.428;2023-02-18T01:43:04;102155.03;;;8.84;100.00
72116;BME280;59991;52.140;5.428;2023-02-18T01:43:36;102163.19;;;8.84;100.00
72116;BME280;59991;52.140;5.428;2023-02-18T01:44:42;102153.44;;;8.83;100.00
72116;BME280;59991;52.140;5.428;2023-02-18T01:46:14;102156.16;;;8.83;100.00
72116;BME280;59991;52.140;5.428;2023-02-18T01:46:46;102152.97;;;8.81;100.00
72116;BME280;59991;52.140;5.428;2023-02-18T01:47:18;102149.47;;;8.81;100.00
72116;BME280;59991;52.140;5.428;2023-02-18T01:47:49;102151.06;;;8.82;100.00
72116;BME280;59991;52.140;5.428;2023-02-18T01:48:31;102154.44;;;8.79;100.00
72116;BME280;59991;52.140;5.428;2023-02-18T01:49:05;102151.72;;;8.79;100.00
72116;BME280;59991;52.140;5.428;2023-02-18T01:49:37;102140.50;;;8.80;100.00
72116;BME280;59991;52.140;5.428;2023-02-18T01:50:09;102145.94;;;8.80;100.00
72116;BME280;59991;52.140;5.428;2023-02-18T01:50:44;102150.91;;;8.78;100.00
72116;BME280;59991;52.140;5.428;2023-02-18T01:51:21;102143.88;;;8.77;100.00
72116;BME280;59991;52.140;5.428;2023-02-18T01:52:00;102154.44;;;8.79;100.00
72116;BME280;59991;52.140;5.428;2023-02-18T01:52:33;102152.84;;;8.78;100.00
72116;BME280;59991;52.140;5.428;2023-02-18T01:53:05;102154.75;;;8.77;100.00
72116;BME280;59991;52.140;5.428;2023-02-18T01:53:43;102142.16;;;8.73;100.00
72116;BME280;59991;52.140;5.428;2023-02-18T01:54:27;102141.50;;;8.76;100.00
72116;BME280;59991;52.140;5.428;2023-02-18T01:55:00;102143.88;;;8.77;100.00
72116;BME280;59991;52.140;5.428;2023-02-18T01:55:33;102140.38;;;8.77;100.00
72116;BME280;59991;52.140;5.428;2023-02-18T01:56:08;102136.84;;;8.76;100.00
72116;BME280;59991;52.140;5.428;2023-02-18T01:56:48;102140.69;;;8.75;100.00
72116;BME280;59991;52.140;5.428;2023-02-18T01:57:29;102140.69;;;8.75;100.00
72116;BME280;59991;52.140;5.428;2023-02-18T01:58:01;102135.25;;;8.75;100.00
72116;BME280;59991;52.140;5.428;2023-02-18T01:58:33;102139.09;;;8.74;100.00
72116;BME280;59991;52.140;5.428;2023-02-18T01:59:09;102138.31;;;8.74;100.00
72116;BME280;59991;52.140;5.428;2023-02-18T01:59:54;102135.25;;;8.75;100.00
72116;BME280;59991;52.140;5.428;2023-02-18T02:00:26;102133.66;;;8.74;100.00
72116;BME280;59991;52.140;5.428;2023-02-18T02:00:58;102135.25;;;8.75;100.00
72116;BME280;59991;52.140;5.428;2023-02-18T02:01:31;102141.50;;;8.76;100.00
72116;BME280;59991;52.140;5.428;2023-02-18T02:02:03;102129.81;;;8.75;100.00
72116;BME280;59991;52.140;5.428;2023-02-18T02:02:39;102128.56;;;8.73;100.00
72116;BME280;59991;52.140;5.428;2023-02-18T02:03:12;102135.91;;;8.72;100.00
72116;BME280;59991;52.140;5.428;2023-02-18T02:03:43;102137.50;;;8.73;100.00
72116;BME280;59991;52.140;5.428;2023-02-18T02:04:15;102146.13;;;8.75;100.00
72116;BME280;59991;52.140;5.428;2023-02-18T02:04:47;102141.34;;;8.72;100.00
72116;BME280;59991;52.140;5.428;2023-02-18T02:05:20;102141.50;;;8.76;100.00
72116;BME280;59991;52.140;5.428;2023-02-18T02:05:52;102141.50;;;8.76;100.00
72116;BME280;59991;52.140;5.428;2023-02-18T02:06:24;102153.16;;;8.76;100.00
72116;BME280;59991;52.140;5.428;2023-02-18T02:06:56;102141.50;;;8.76;100.00
72116;BME280;59991;52.140;5.428;2023-02-18T02:07:28;102134.78;;;8.73;100.00
72116;BME280;59991;52.140;5.428;2023-02-18T02:08:00;102143.88;;;8.77;100.00
72116;BME280;59991;52.140;5.428;2023-02-18T02:08:33;102138.44;;;8.77;100.00
72116;BME280;59991;52.140;5.428;2023-02-18T02:09:07;102134.00;;;8.73;100.00
72116;BME280;59991;52.140;5.428;2023-02-18T02:09:41;102141.16;;;8.77;100.00
72116;BME280;59991;52.140;5.428;2023-02-18T02:10:13;102134.94;;;8.77;100.00
72116;BME280;59991;52.140;5.428;2023-02-18T02:12:27;102120.53;;;8.76;100.00
72116;BME280;59991;52.140;5.428;2023-02-18T02:14:03;102114.75;;;8.78;100.00
72116;BME280;59991;52.140;5.428;2023-02-18T02:14:44;102124.84;;;8.77;100.00
72116;BME280;59991;52.140;5.428;2023-02-18T02:15:23;102113.97;;;8.77;100.00
72116;BME280;59991;52.140;5.428;2023-02-18T02:16:07;102120.53;;;8.76;100.00
72116;BME280;59991;52.140;5.428;2023-02-18T02:17:05;102116.69;;;8.77;100.00
72116;BME280;59991;52.140;5.428;2023-02-18T02:18:07;102115.09;;;8.76;100.00
72116;BME280;59991;52.140;5.428;2023-02-18T02:18:59;102115.09;;;8.76;100.00
72116;BME280;59991;52.140;5.428;2023-02-18T02:22:57;102098.31;;;8.74;100.00
72116;BME280;59991;52.140;5.428;2023-02-18T02:24:42;102091.28;;;8.73;100.00
72116;BME280;59991;52.140;5.428;2023-02-18T02:25:31;102094.78;;;8.74;100.00
72116;BME280;59991;52.140;5.428;2023-02-18T02:27:10;102085.72;;;8.70;100.00
72116;BME280;59991;52.140;5.428;2023-02-18T02:28:56;102086.97;;;8.72;100.00
72116;BME280;59991;52.140;5.428;2023-02-18T02:30:02;102083.13;;;8.73;100.00
72116;BME280;59991;52.140;5.428;2023-02-18T02:31:05;102080.72;;;8.72;100.00
72116;BME280;59991;52.140;5.428;2023-02-18T02:35:23;102061.38;;;8.73;100.00
72116;BME280;59991;52.140;5.428;2023-02-18T02:36:00;102064.09;;;8.73;100.00
72116;BME280;59991;52.140;5.428;2023-02-18T02:36:49;102050.50;;;8.73;100.00
72116;BME280;59991;52.140;5.428;2023-02-18T02:37:47;102048.56;;;8.74;100.00
72116;BME280;59991;52.140;5.428;2023-02-18T02:38:31;102039.59;;;8.73;100.00
72116;BME280;59991;52.140;5.428;2023-02-18T02:39:23;102043.13;;;8.74;100.00
72116;BME280;59991;52.140;5.428;2023-02-18T02:41:04;102040.41;;;8.74;100.00
72116;BME280;59991;52.140;5.428;2023-02-18T02:42:10;102027.16;;;8.72;100.00
72116;BME280;59991;52.140;5.428;2023-02-18T02:44:02;102022.50;;;8.73;100.00
72116;BME280;59991;52.140;5.428;2023-02-18T02:46:28;102019.44;;;8.74;100.00
72116;BME280;59991;52.140;5.428;2023-02-18T02:46:44;102017.53;;;8.75;100.00
72116;BME280;59991;52.140;5.428;2023-02-18T02:47:26;102017.53;;;8.75;100.00
72116;BME280;59991;52.140;5.428;2023-02-18T02:48:22;102014.81;;;8.75;100.00
72116;BME280;59991;52.140;5.428;2023-02-18T02:49:08;102013.22;;;8.74;100.00
72116;BME280;59991;52.140;5.428;2023-02-18T02:49:52;102010.50;;;8.74;100.00
72116;BME280;59991;52.140;5.428;2023-02-18T02:50:37;102009.38;;;8.75;100.00
72116;BME280;59991;52.140;5.428;2023-02-18T02:51:27;102005.06;;;8.74;100.00
72116;BME280;59991;52.140;5.428;2023-02-18T02:52:20;102004.72;;;8.75;100.00
72116;BME280;59991;52.140;5.428;2023-02-18T02:52:58;102006.66;;;8.75;100.00
72116;BME280;59991;52.140;5.428;2023-02-18T02:53:33;102014.47;;;8.76;100.00
72116;BME280;59991;52.140;5.428;2023-02-18T02:54:25;102011.75;;;8.76;100.00
72116;BME280;59991;52.140;5.428;2023-02-18T02:54:57;102008.25;;;8.76;100.00
72116;BME280;59991;52.140;5.428;2023-02-18T02:55:29;102002.00;;;8.75;100.00
72116;BME280;59991;52.140;5.428;2023-02-18T02:56:00;101999.94;;;8.72;100.00
72116;BME280;59991;52.140;5.428;2023-02-18T02:56:31;101992.91;;;8.71;100.00
72116;BME280;59991;52.140;5.428;2023-02-18T02:58:14;101998.16;;;8.76;100.00
72116;BME280;59991;52.140;5.428;2023-02-18T02:58:57;102002.00;;;8.75;100.00
72116;BME280;59991;52.140;5.428;2023-02-18T02:59:30;101992.59;;;8.73;100.00
72116;BME280;59991;52.140;5.428;2023-02-18T03:00:06;101995.78;;;8.75;100.00
72116;BME280;59991;52.140;5.428;2023-02-18T03:04:34;101987.75;;;8.78;100.00
72116;BME280;59991;52.140;5.428;2023-02-18T03:05:43;101987.75;;;8.78;100.00
72116;BME280;59991;52.140;5.428;2023-02-18T03:07:52;101977.66;;;8.79;100.00
72116;BME280;59991;52.140;5.428;2023-02-18T03:11:13;101980.03;;;8.80;100.00
72116;BME280;59991;52.140;5.428;2023-02-18T03:11:54;101978.91;;;8.81;100.00
72116;BME280;59991;52.140;5.428;2023-02-18T03:13:09;101975.41;;;8.81;100.00
72116;BME280;59991;52.140;5.428;2023-02-18T03:14:52;101975.41;;;8.81;100.00
72116;BME280;59991;52.140;5.428;2023-02-18T03:15:23;101963.72;;;8.80;100.00
72116;BME280;59991;52.140;5.428;2023-02-18T03:16:52;101973.47;;;8.81;100.00
72116;BME280;59991;52.140;5.428;2023-02-18T03:17:36;101965.31;;;8.81;100.00
72116;BME280;59991;52.140;5.428;2023-02-18T03:18:17;101969.94;;;8.81;100.00
72116;BME280;59991;52.140;5.428;2023-02-18T03:19:50;101969.28;;;8.84;100.00
72116;BME280;59991;52.140;5.428;2023-02-18T03:20:27;101972.81;;;8.84;100.00
72116;BME280;59991;52.140;5.428;2023-02-18T03:21:14;101971.63;;;8.85;100.00
72116;BME280;59991;52.140;5.428;2023-02-18T03:22:43;101965.44;;;8.85;100.00
72116;BME280;59991;52.140;5.428;2023-02-18T03:23:19;101965.44;;;8.85;100.00
72116;BME280;59991;52.140;5.428;2023-02-18T03:24:41;101956.91;;;8.86;100.00
72116;BME280;59991;52.140;5.428;2023-02-18T03:25:15;101963.16;;;8.87;100.00
72116;BME280;59991;52.140;5.428;2023-02-18T03:25:48;101957.69;;;8.87;100.00
72116;BME280;59991;52.140;5.428;2023-02-18T03:26:22;101947.16;;;8.85;100.00
72116;BME280;59991;52.140;5.428;2023-02-18T03:26:58;101954.97;;;8.87;100.00
72116;BME280;59991;52.140;5.428;2023-02-18T03:27:36;101956.56;;;8.88;100.00
72116;BME280;59991;52.140;5.428;2023-02-18T03:28:14;101954.66;;;8.88;100.00
72116;BME280;59991;52.140;5.428;2023-02-18T03:28:49;101951.94;;;8.88;100.00
72116;BME280;59991;52.140;5.428;2023-02-18T03:29:22;101960.22;;;8.92;100.00
72116;BME280;59991;52.140;5.428;2023-02-18T03:30:02;101951.94;;;8.88;100.00
72116;BME280;59991;52.140;5.428;2023-02-18T03:30:43;101952.84;;;8.92;100.00
72116;BME280;59991;52.140;5.428;2023-02-18T03:31:19;101956.69;;;8.91;100.00
72116;BME280;59991;52.140;5.428;2023-02-18T03:31:54;101954.44;;;8.93;100.00
72116;BME280;59991;52.140;5.428;2023-02-18T03:32:28;101954.09;;;8.95;100.00
72116;BME280;59991;52.140;5.428;2023-02-18T03:33:06;101954.09;;;8.95;100.00
72116;BME280;59991;52.140;5.428;2023-02-18T03:33:45;101951.38;;;8.95;100.00